CCA1013 ZBYN-ZBAA
Flight info
| Callsign | CCA1013 |
|---|---|
| Flight time | 0h 47m |
| Altitude | 34097 |
| Route | ISLEP G212 TONOV V152 GUVRI W56 DUGEB |
| Aircraft | B738/M-SDE2E3FGILRWXY/LB2 |
Departure
| Time | 2026-04-24 13:28 |
|---|---|
| Airport | Taiyuan Wusu International Airport (ZBYN) |
Arrival
| Time | 2026-04-24 14:15 |
|---|---|
| Airport | Beijing Capital International Airport (ZBAA) |
| Time | Latitude | Longitude | Altitude | Speed | Heading |
|---|---|---|---|---|---|
| 2026-04-24 13:17 | 37.75353 | 112.62552 | 2589 ft | 0 kts | 39° |
| 2026-04-24 13:21 | 37.75353 | 112.62551 | 2588 ft | 0 kts | 39° |
| 2026-04-24 13:22 | 37.75344 | 112.62543 | 2588 ft | 2 kts | 38° |
| 2026-04-24 13:22 | 37.75333 | 112.62531 | 2588 ft | 2 kts | 39° |
| 2026-04-24 13:22 | 37.75325 | 112.62523 | 2588 ft | 1 kts | 39° |
| 2026-04-24 13:22 | 37.75312 | 112.62515 | 2588 ft | 2 kts | 4° |
| 2026-04-24 13:23 | 37.75296 | 112.62517 | 2588 ft | 2 kts | 333° |
| 2026-04-24 13:23 | 37.75288 | 112.62526 | 2588 ft | 0 kts | 311° |
| 2026-04-24 13:23 | 37.75283 | 112.62533 | 2588 ft | 1 kts | 307° |
| 2026-04-24 13:23 | 37.75283 | 112.62534 | 2588 ft | 0 kts | 307° |
| 2026-04-24 13:24 | 37.75292 | 112.62520 | 2588 ft | 5 kts | 307° |
| 2026-04-24 13:25 | 37.75329 | 112.62459 | 2588 ft | 12 kts | 308° |
| 2026-04-24 13:25 | 37.75384 | 112.62349 | 2588 ft | 13 kts | 276° |
| 2026-04-24 13:25 | 37.75330 | 112.62266 | 2588 ft | 14 kts | 217° |
| 2026-04-24 13:25 | 37.75305 | 112.62172 | 2588 ft | 13 kts | 294° |
| 2026-04-24 13:26 | 37.75373 | 112.62054 | 2588 ft | 19 kts | 308° |
| 2026-04-24 13:26 | 37.75468 | 112.61897 | 2588 ft | 23 kts | 307° |
| 2026-04-24 13:26 | 37.75529 | 112.61777 | 2588 ft | 10 kts | 275° |
| 2026-04-24 13:26 | 37.75493 | 112.61705 | 2588 ft | 10 kts | 217° |
| 2026-04-24 13:27 | 37.75422 | 112.61654 | 2588 ft | 11 kts | 181° |
| 2026-04-24 13:27 | 37.75356 | 112.61733 | 2588 ft | 31 kts | 127° |
| 2026-04-24 13:27 | 37.75050 | 112.62239 | 2588 ft | 111 kts | 128° |
| 2026-04-24 13:27 | 37.74460 | 112.63251 | 2682 ft | 164 kts | 127° |
| 2026-04-24 13:28 | 37.73835 | 112.64445 | 3130 ft | 175 kts | 127° |
| 2026-04-24 13:28 | 37.73066 | 112.65771 | 3695 ft | 200 kts | 130° |
| 2026-04-24 13:28 | 37.72123 | 112.67193 | 4299 ft | 226 kts | 134° |
| 2026-04-24 13:28 | 37.71030 | 112.68740 | 4846 ft | 250 kts | 130° |
| 2026-04-24 13:29 | 37.69968 | 112.70581 | 5516 ft | 267 kts | 127° |
| 2026-04-24 13:29 | 37.68839 | 112.72518 | 6344 ft | 278 kts | 128° |
| 2026-04-24 13:29 | 37.67673 | 112.74470 | 7240 ft | 284 kts | 128° |
| 2026-04-24 13:29 | 37.66482 | 112.76461 | 8151 ft | 289 kts | 128° |
| 2026-04-24 13:30 | 37.65263 | 112.78498 | 9061 ft | 293 kts | 128° |
| 2026-04-24 13:30 | 37.64045 | 112.80529 | 9937 ft | 297 kts | 128° |
| 2026-04-24 13:30 | 37.62783 | 112.82630 | 10547 ft | 312 kts | 128° |
| 2026-04-24 13:30 | 37.61426 | 112.84923 | 10783 ft | 338 kts | 124° |
| 2026-04-24 13:31 | 37.60403 | 112.87661 | 11057 ft | 361 kts | 104° |
| 2026-04-24 13:31 | 37.60290 | 112.90944 | 11168 ft | 385 kts | 79° |
| 2026-04-24 13:31 | 37.61289 | 112.94079 | 11488 ft | 399 kts | 55° |
| 2026-04-24 13:31 | 37.63131 | 112.96716 | 12179 ft | 403 kts | 44° |
| 2026-04-24 13:32 | 37.65081 | 112.99335 | 12643 ft | 414 kts | 48° |
| 2026-04-24 13:32 | 37.66911 | 113.02111 | 13359 ft | 417 kts | 50° |
| 2026-04-24 13:32 | 37.68727 | 113.04991 | 13944 ft | 424 kts | 50° |
| 2026-04-24 13:32 | 37.70551 | 113.07941 | 14600 ft | 428 kts | 50° |
| 2026-04-24 13:33 | 37.72360 | 113.10902 | 15182 ft | 434 kts | 50° |
| 2026-04-24 13:33 | 37.74207 | 113.13951 | 15819 ft | 438 kts | 50° |
| 2026-04-24 13:33 | 37.76093 | 113.17078 | 16376 ft | 444 kts | 50° |
| 2026-04-24 13:33 | 37.77965 | 113.20196 | 16969 ft | 448 kts | 50° |
| 2026-04-24 13:34 | 37.79848 | 113.23340 | 17477 ft | 454 kts | 50° |
| 2026-04-24 13:34 | 37.81743 | 113.26509 | 18006 ft | 458 kts | 50° |
| 2026-04-24 13:34 | 37.83686 | 113.29765 | 18518 ft | 463 kts | 50° |
| 2026-04-24 13:34 | 37.85615 | 113.33002 | 18992 ft | 468 kts | 49° |
| 2026-04-24 13:35 | 37.87582 | 113.36306 | 19473 ft | 472 kts | 49° |
| 2026-04-24 13:35 | 37.89575 | 113.39658 | 19942 ft | 476 kts | 49° |
| 2026-04-24 13:35 | 37.91568 | 113.43014 | 20399 ft | 481 kts | 49° |
| 2026-04-24 13:35 | 37.93542 | 113.46420 | 20829 ft | 486 kts | 51° |
| 2026-04-24 13:36 | 37.95310 | 113.50073 | 21235 ft | 494 kts | 58° |
| 2026-04-24 13:36 | 37.96885 | 113.53939 | 21658 ft | 498 kts | 60° |
| 2026-04-24 13:36 | 37.98438 | 113.57865 | 22046 ft | 502 kts | 59° |
| 2026-04-24 13:36 | 38.00030 | 113.61862 | 22414 ft | 507 kts | 59° |
| 2026-04-24 13:37 | 38.01620 | 113.65873 | 22776 ft | 511 kts | 60° |
| 2026-04-24 13:37 | 38.03210 | 113.69930 | 23116 ft | 515 kts | 60° |
| 2026-04-24 13:37 | 38.04787 | 113.73980 | 23442 ft | 518 kts | 60° |
| 2026-04-24 13:37 | 38.06378 | 113.78079 | 23771 ft | 522 kts | 60° |
| 2026-04-24 13:38 | 38.07992 | 113.82252 | 24156 ft | 524 kts | 60° |
| 2026-04-24 13:38 | 38.09588 | 113.86391 | 24698 ft | 522 kts | 60° |
| 2026-04-24 13:38 | 38.11195 | 113.90569 | 25095 ft | 524 kts | 60° |
| 2026-04-24 13:38 | 38.12756 | 113.94743 | 25664 ft | 522 kts | 63° |
| 2026-04-24 13:39 | 38.14088 | 113.99071 | 25979 ft | 528 kts | 70° |
| 2026-04-24 13:39 | 38.15239 | 114.03503 | 26190 ft | 533 kts | 66° |
| 2026-04-24 13:39 | 38.16877 | 114.07665 | 26559 ft | 524 kts | 54° |
| 2026-04-24 13:39 | 38.18711 | 114.11685 | 26548 ft | 527 kts | 60° |
| 2026-04-24 13:40 | 38.20006 | 114.16055 | 26571 ft | 530 kts | 72° |
| 2026-04-24 13:40 | 38.20913 | 114.20635 | 26566 ft | 531 kts | 75° |
| 2026-04-24 13:40 | 38.21775 | 114.25195 | 26566 ft | 531 kts | 74° |
| 2026-04-24 13:40 | 38.22675 | 114.29703 | 26566 ft | 530 kts | 73° |
| 2026-04-24 13:41 | 38.23603 | 114.34272 | 26566 ft | 530 kts | 73° |
| 2026-04-24 13:41 | 38.24508 | 114.38773 | 26566 ft | 531 kts | 73° |
| 2026-04-24 13:41 | 38.25417 | 114.43336 | 26566 ft | 532 kts | 73° |
| 2026-04-24 13:41 | 38.26321 | 114.47896 | 26566 ft | 533 kts | 73° |
| 2026-04-24 13:42 | 38.27237 | 114.52526 | 26378 ft | 533 kts | 73° |
| 2026-04-24 13:42 | 38.28114 | 114.56979 | 26128 ft | 516 kts | 73° |
| 2026-04-24 13:42 | 38.28971 | 114.61343 | 25876 ft | 497 kts | 73° |
| 2026-04-24 13:42 | 38.29792 | 114.65529 | 25626 ft | 480 kts | 74° |
| 2026-04-24 13:43 | 38.30536 | 114.69330 | 25393 ft | 468 kts | 73° |
| 2026-04-24 13:43 | 38.31354 | 114.73498 | 25141 ft | 470 kts | 74° |
| 2026-04-24 13:43 | 38.32131 | 114.77466 | 24901 ft | 472 kts | 74° |
| 2026-04-24 13:43 | 38.32672 | 114.80235 | 24731 ft | 473 kts | 74° |
| 2026-04-24 13:44 | 38.33385 | 114.83898 | 24505 ft | 472 kts | 74° |
| 2026-04-24 13:44 | 38.34192 | 114.88050 | 24247 ft | 471 kts | 74° |
| 2026-04-24 13:44 | 38.34984 | 114.92136 | 23995 ft | 470 kts | 74° |
| 2026-04-24 13:44 | 38.35764 | 114.96162 | 23745 ft | 470 kts | 74° |
| 2026-04-24 13:45 | 38.36498 | 114.99965 | 23509 ft | 469 kts | 73° |
| 2026-04-24 13:45 | 38.37270 | 115.03970 | 23259 ft | 467 kts | 73° |
| 2026-04-24 13:45 | 38.38039 | 115.07973 | 23009 ft | 465 kts | 73° |
| 2026-04-24 13:45 | 38.38808 | 115.11974 | 22758 ft | 464 kts | 73° |
| 2026-04-24 13:46 | 38.39573 | 115.15970 | 22508 ft | 462 kts | 72° |
| 2026-04-24 13:46 | 38.40339 | 115.19977 | 22255 ft | 460 kts | 72° |
| 2026-04-24 13:46 | 38.41085 | 115.23882 | 22007 ft | 459 kts | 72° |
| 2026-04-24 13:46 | 38.41844 | 115.27865 | 21755 ft | 459 kts | 72° |
| 2026-04-24 13:47 | 38.42589 | 115.31782 | 21506 ft | 458 kts | 72° |
| 2026-04-24 13:47 | 38.43338 | 115.35728 | 21256 ft | 458 kts | 72° |
| 2026-04-24 13:47 | 38.44084 | 115.39668 | 21006 ft | 457 kts | 72° |
| 2026-04-24 13:47 | 38.44824 | 115.43587 | 20756 ft | 456 kts | 72° |
| 2026-04-24 13:48 | 38.45564 | 115.47509 | 20507 ft | 455 kts | 72° |
| 2026-04-24 13:48 | 38.46302 | 115.51431 | 20256 ft | 455 kts | 72° |
| 2026-04-24 13:48 | 38.47044 | 115.55376 | 20004 ft | 454 kts | 72° |
| 2026-04-24 13:48 | 38.47802 | 115.59279 | 19751 ft | 452 kts | 70° |
| 2026-04-24 13:49 | 38.48865 | 115.63066 | 19496 ft | 447 kts | 62° |
| 2026-04-24 13:49 | 38.50303 | 115.66537 | 19246 ft | 442 kts | 53° |
| 2026-04-24 13:49 | 38.52238 | 115.69640 | 18994 ft | 436 kts | 41° |
| 2026-04-24 13:49 | 38.54445 | 115.72263 | 18748 ft | 433 kts | 36° |
| 2026-04-24 13:50 | 38.56860 | 115.74506 | 18480 ft | 420 kts | 26° |
| 2026-04-24 13:50 | 38.59394 | 115.76160 | 18231 ft | 400 kts | 21° |
| 2026-04-24 13:50 | 38.61836 | 115.77642 | 17963 ft | 376 kts | 21° |
| 2026-04-24 13:50 | 38.64065 | 115.79112 | 17719 ft | 348 kts | 24° |
| 2026-04-24 13:51 | 38.65459 | 115.80141 | 17673 ft | 336 kts | 27° |
| 2026-04-24 13:51 | 38.67903 | 115.82413 | 17653 ft | 320 kts | 34° |
| 2026-04-24 13:51 | 38.69635 | 115.84216 | 17651 ft | 325 kts | 34° |
| 2026-04-24 13:51 | 38.71404 | 115.86053 | 17647 ft | 327 kts | 34° |
| 2026-04-24 13:52 | 38.72593 | 115.87305 | 17644 ft | 328 kts | 34° |
| 2026-04-24 13:52 | 38.74929 | 115.89796 | 17641 ft | 327 kts | 35° |
| 2026-04-24 13:52 | 38.76679 | 115.91672 | 17639 ft | 327 kts | 35° |
| 2026-04-24 13:52 | 38.78421 | 115.93542 | 17639 ft | 327 kts | 35° |
| 2026-04-24 13:53 | 38.80168 | 115.95422 | 17639 ft | 327 kts | 35° |
| 2026-04-24 13:53 | 38.81900 | 115.97289 | 17580 ft | 329 kts | 35° |
| 2026-04-24 13:53 | 38.83653 | 115.99179 | 17319 ft | 328 kts | 35° |
| 2026-04-24 13:53 | 38.85415 | 116.01084 | 17063 ft | 324 kts | 35° |
| 2026-04-24 13:54 | 38.87113 | 116.02920 | 16815 ft | 321 kts | 36° |
| 2026-04-24 13:54 | 38.88815 | 116.04760 | 16565 ft | 320 kts | 36° |
| 2026-04-24 13:54 | 38.90528 | 116.06612 | 16315 ft | 322 kts | 36° |
| 2026-04-24 13:54 | 38.92256 | 116.08484 | 16063 ft | 324 kts | 36° |
| 2026-04-24 13:55 | 38.93970 | 116.10340 | 15815 ft | 325 kts | 36° |
| 2026-04-24 13:55 | 38.95713 | 116.12231 | 15646 ft | 325 kts | 36° |
| 2026-04-24 13:55 | 38.97427 | 116.14092 | 15640 ft | 328 kts | 36° |
| 2026-04-24 13:55 | 38.99181 | 116.15994 | 15639 ft | 333 kts | 36° |
| 2026-04-24 13:56 | 39.00992 | 116.17941 | 15433 ft | 338 kts | 34° |
| 2026-04-24 13:56 | 39.02996 | 116.19388 | 15170 ft | 328 kts | 13° |
| 2026-04-24 13:56 | 39.05206 | 116.19662 | 14930 ft | 318 kts | 348° |
| 2026-04-24 13:56 | 39.07402 | 116.19218 | 14692 ft | 317 kts | 348° |
| 2026-04-24 13:57 | 39.09584 | 116.18925 | 14438 ft | 317 kts | 351° |
| 2026-04-24 13:57 | 39.11801 | 116.18652 | 14182 ft | 315 kts | 350° |
| 2026-04-24 13:57 | 39.13957 | 116.18340 | 13932 ft | 313 kts | 349° |
| 2026-04-24 13:57 | 39.16119 | 116.18021 | 13680 ft | 312 kts | 349° |
| 2026-04-24 13:58 | 39.18270 | 116.17703 | 13429 ft | 310 kts | 350° |
| 2026-04-24 13:58 | 39.20416 | 116.17382 | 13178 ft | 309 kts | 350° |
| 2026-04-24 13:58 | 39.22540 | 116.17062 | 12928 ft | 308 kts | 350° |
| 2026-04-24 13:58 | 39.24668 | 116.16742 | 12744 ft | 304 kts | 350° |
| 2026-04-24 13:59 | 39.26071 | 116.16531 | 12744 ft | 303 kts | 350° |
| 2026-04-24 13:59 | 39.28894 | 116.16102 | 12739 ft | 307 kts | 350° |
| 2026-04-24 13:59 | 39.31013 | 116.15781 | 12738 ft | 307 kts | 350° |
| 2026-04-24 13:59 | 39.33135 | 116.15460 | 12738 ft | 307 kts | 350° |
| 2026-04-24 14:00 | 39.35263 | 116.15137 | 12637 ft | 309 kts | 350° |
| 2026-04-24 14:00 | 39.37389 | 116.14814 | 12378 ft | 307 kts | 351° |
| 2026-04-24 14:00 | 39.39523 | 116.14604 | 12119 ft | 306 kts | 0° |
| 2026-04-24 14:00 | 39.41575 | 116.15123 | 11871 ft | 307 kts | 20° |
| 2026-04-24 14:01 | 39.43330 | 116.16470 | 11639 ft | 310 kts | 39° |
| 2026-04-24 14:01 | 39.44740 | 116.18552 | 11380 ft | 302 kts | 58° |
| 2026-04-24 14:01 | 39.45522 | 116.21014 | 11131 ft | 295 kts | 78° |
| 2026-04-24 14:01 | 39.45801 | 116.23628 | 10893 ft | 293 kts | 84° |
| 2026-04-24 14:02 | 39.46046 | 116.26272 | 10641 ft | 294 kts | 83° |
| 2026-04-24 14:02 | 39.46315 | 116.28913 | 10387 ft | 293 kts | 83° |
| 2026-04-24 14:02 | 39.46571 | 116.31531 | 10134 ft | 291 kts | 84° |
| 2026-04-24 14:02 | 39.46819 | 116.34119 | 9884 ft | 290 kts | 83° |
| 2026-04-24 14:03 | 39.47066 | 116.36690 | 9633 ft | 288 kts | 84° |
| 2026-04-24 14:03 | 39.47313 | 116.39269 | 9381 ft | 287 kts | 83° |
| 2026-04-24 14:03 | 39.47555 | 116.41834 | 9151 ft | 286 kts | 83° |
| 2026-04-24 14:03 | 39.47924 | 116.44322 | 9142 ft | 284 kts | 70° |
| 2026-04-24 14:04 | 39.48984 | 116.46469 | 9141 ft | 286 kts | 41° |
| 2026-04-24 14:04 | 39.50513 | 116.48028 | 8921 ft | 280 kts | 37° |
| 2026-04-24 14:04 | 39.52049 | 116.49648 | 8571 ft | 284 kts | 39° |
| 2026-04-24 14:04 | 39.53569 | 116.51292 | 8220 ft | 283 kts | 38° |
| 2026-04-24 14:05 | 39.55082 | 116.52895 | 7870 ft | 281 kts | 38° |
| 2026-04-24 14:05 | 39.56598 | 116.54505 | 7516 ft | 280 kts | 39° |
| 2026-04-24 14:05 | 39.57589 | 116.55560 | 7285 ft | 279 kts | 38° |
| 2026-04-24 14:05 | 39.59577 | 116.57671 | 6817 ft | 276 kts | 38° |
| 2026-04-24 14:06 | 39.61047 | 116.59229 | 6492 ft | 274 kts | 39° |
| 2026-04-24 14:06 | 39.62503 | 116.60776 | 6401 ft | 266 kts | 39° |
| 2026-04-24 14:06 | 39.63912 | 116.62275 | 6351 ft | 260 kts | 38° |
| 2026-04-24 14:06 | 39.65288 | 116.63739 | 6232 ft | 251 kts | 38° |
| 2026-04-24 14:07 | 39.66666 | 116.65145 | 5882 ft | 251 kts | 32° |
| 2026-04-24 14:07 | 39.68292 | 116.65840 | 5555 ft | 245 kts | 358° |
| 2026-04-24 14:07 | 39.69939 | 116.65482 | 5350 ft | 236 kts | 346° |
| 2026-04-24 14:07 | 39.71501 | 116.65224 | 5343 ft | 224 kts | 355° |
| 2026-04-24 14:08 | 39.73076 | 116.65065 | 5216 ft | 227 kts | 355° |
| 2026-04-24 14:08 | 39.74626 | 116.64872 | 5011 ft | 221 kts | 352° |
| 2026-04-24 14:08 | 39.76127 | 116.64624 | 4774 ft | 214 kts | 353° |
| 2026-04-24 14:08 | 39.77570 | 116.64399 | 4581 ft | 204 kts | 353° |
| 2026-04-24 14:09 | 39.78937 | 116.64184 | 4350 ft | 192 kts | 354° |
| 2026-04-24 14:09 | 39.80226 | 116.63982 | 4151 ft | 180 kts | 354° |
| 2026-04-24 14:09 | 39.81432 | 116.63795 | 4036 ft | 173 kts | 355° |
| 2026-04-24 14:09 | 39.82650 | 116.63605 | 3913 ft | 175 kts | 355° |
| 2026-04-24 14:10 | 39.83451 | 116.63481 | 3839 ft | 172 kts | 354° |
| 2026-04-24 14:10 | 39.84966 | 116.63244 | 3667 ft | 161 kts | 354° |
| 2026-04-24 14:10 | 39.86081 | 116.63069 | 3547 ft | 163 kts | 354° |
| 2026-04-24 14:10 | 39.87207 | 116.62893 | 3389 ft | 163 kts | 354° |
| 2026-04-24 14:11 | 39.88345 | 116.62715 | 3237 ft | 163 kts | 354° |
| 2026-04-24 14:11 | 39.89473 | 116.62538 | 3101 ft | 162 kts | 354° |
| 2026-04-24 14:11 | 39.91678 | 116.62193 | 2908 ft | 155 kts | 354° |
| 2026-04-24 14:12 | 39.92731 | 116.62028 | 2667 ft | 149 kts | 354° |
| 2026-04-24 14:12 | 39.93747 | 116.61869 | 2505 ft | 147 kts | 354° |
| 2026-04-24 14:12 | 39.94751 | 116.61712 | 2270 ft | 143 kts | 354° |
| 2026-04-24 14:12 | 39.95764 | 116.61555 | 2089 ft | 150 kts | 355° |
| 2026-04-24 14:13 | 39.96784 | 116.61393 | 1877 ft | 148 kts | 355° |
| 2026-04-24 14:13 | 39.97812 | 116.61232 | 1676 ft | 151 kts | 354° |
| 2026-04-24 14:13 | 39.98838 | 116.61070 | 1470 ft | 147 kts | 355° |
| 2026-04-24 14:13 | 39.99852 | 116.60911 | 1275 ft | 147 kts | 355° |
| 2026-04-24 14:14 | 40.00841 | 116.60759 | 1066 ft | 147 kts | 355° |
| 2026-04-24 14:14 | 40.01849 | 116.60590 | 913 ft | 146 kts | 354° |
| 2026-04-24 14:14 | 40.03823 | 116.60277 | 539 ft | 142 kts | 356° |
| 2026-04-24 14:15 | 40.04821 | 116.60135 | 345 ft | 144 kts | 354° |
| 2026-04-24 14:15 | 40.05787 | 116.59978 | 124 ft | 131 kts | 354° |
| 2026-04-24 14:15 | 40.06448 | 116.59892 | 122 ft | 61 kts | 353° |
| 2026-04-24 14:15 | 40.06749 | 116.59839 | 122 ft | 37 kts | 352° |
| 2026-04-24 14:16 | 40.06903 | 116.59819 | 122 ft | 0 kts | 357° |
| 2026-04-24 14:16 | 40.06914 | 116.59819 | 122 ft | 10 kts | 1° |
| 2026-04-24 14:16 | 40.07079 | 116.59838 | 122 ft | 19 kts | 14° |
| 2026-04-24 14:17 | 40.07290 | 116.59949 | 122 ft | 12 kts | 32° |
| 2026-04-24 14:17 | 40.07315 | 116.60064 | 122 ft | 17 kts | 84° |
| 2026-04-24 14:17 | 40.07335 | 116.60377 | 122 ft | 12 kts | 85° |
| 2026-04-24 14:18 | 40.07342 | 116.60466 | 122 ft | 5 kts | 83° |
| 2026-04-24 14:18 | 40.07345 | 116.60502 | 122 ft | 0 kts | 83° |